Davie, FL

2:04 PM EDT on March 27, 2015 (GMT -0400)
Opa Locka | | Change Station
CLOSE
Current Station
Airport
Location: Opa Locka,
Elevation: 10 ft
Nearby Weather Stations

Elev 10 ft 25.91 °N, 80.28 °W | Updated 11 minutes ago

Mostly Cloudy
Mostly Cloudy
90 °F
Feels Like 92 °F
N
21
Wind Variable Wind from SSW
Gusts 29 mph

Today
High -- | Low -- °F
--% Chance of Precip.
Yesterday
High -- | Low -- °F
Precip. -- in
7:17 AM 7:35 PM
First Quarter, 54% visible
Pressure 29.88 in
Visibility 10.0 miles
Clouds Few 5000 ft
Heat Index 92 °F
Dew Point 66 °F
Humidity 45%
Rainfall 0.01 in
Snow Depth Not available.
UV 12 out of 12
Pollen 8.50 out of 12
Air Quality Not available.
Flu Activity Not available.
METAR KOPF 271753Z 21018G25KT 10SM FEW050 32/19 A2987 RMK AO2 SLP117 60001 T03220189 10322 20250 58023

More Conditions Fewer Conditions

Pressure 29.88 in
Visibility 10.0 miles
Clouds Few 5000 ft
Heat Index 92 °F
Dew Point 66 °F
Humidity 45%
Rainfall 0.01 in
Snow Depth Not available.
UV 12 out of 12
Pollen 8.50 out of 12
Air Quality Not available.
Flu Activity Not available.
METAR KOPF 271753Z 21018G25KT 10SM FEW050 32/19 A2987 RMK AO2 SLP117 60001 T03220189 10322 20250 58023

More Conditions Fewer Conditions

10-Day Weather Forecast

Almanac

Astronomy

Mar. 27, 2015 Rise Set
Actual Time
Civil Twilight
Nautical Twilight
Astronomical Twilight
Moon
Length of Visible Light
Length of Day
Tomorrow will be .
, % of the Moon is Illuminated

Today's Extremes

State Highs State Lows

Community

WunderPhotos

Upload Photos

1,808,772 photos uploaded!

WunderBlogs® & News

Nearby

Air Quality

  Air Quality AQ Index Pollutant
Not available.

Snow Depth

Station Depth Elevation

Earthquake Activity

City Distance Mag. Time & Date
Minimum magnitude displayed is 2.5.

Coastal Water Temperatures

Place Temperature

Stations

Nearby Weather Stations

Station Location Temp. Windchill Dew Point Humidity Wind Precip. Elev Updated Type